Sao Vicente, Brazil
Current Conditions -  °F | °C
As of 8:00 PM on Friday 21 Nov 2014 (Local Time) from SBST Reporting Station
Clear Clear  
Wind Chill: 73°   Ceiling: Unl
Heat Index: 73°   Visibility: 5mi
Dew Point: 68°   Wind: 2mph
Humidity: 83%   Direction: 130°SE
Pressure: 29.85"   Gusts: NA
Location:  23.96°S, 46.39°W
Report Text: SBST 212200Z 13002KT 8000 NSC 23/20 Q1011
Loading
Personal Weather Stations






























Interactive Weather Map New forecast layout! Learn more

10-Day Weather Forecast

Advertisements
Track Severe Weather on mobile